createdAt,value
2023-04-29T00:01:00.003Z,98251.00
2023-04-29T00:03:29.144Z,98257.00
2023-04-29T00:05:56.066Z,98248.00
2023-04-29T00:08:22.872Z,98260.00
2023-04-29T00:10:50.000Z,98265.00
2023-04-29T00:13:16.870Z,98259.00
2023-04-29T00:15:43.910Z,98265.00
2023-04-29T00:18:10.888Z,98255.00
2023-04-29T00:20:38.808Z,98260.00
2023-04-29T00:23:06.096Z,98258.00
2023-04-29T00:25:32.647Z,98254.00
2023-04-29T00:28:02.034Z,98248.00
2023-04-29T00:30:29.001Z,98249.00
2023-04-29T00:32:55.490Z,98251.00
2023-04-29T00:35:22.046Z,98249.00
2023-04-29T00:37:49.229Z,98249.00
2023-04-29T00:40:16.376Z,98259.00
2023-04-29T00:42:43.487Z,98251.00
2023-04-29T00:45:11.497Z,98253.00
2023-04-29T00:47:38.764Z,98255.00
2023-04-29T00:50:06.565Z,98255.00
2023-04-29T00:52:34.000Z,98253.00
2023-04-29T00:55:01.111Z,98264.00
2023-04-29T00:57:29.894Z,98258.00
2023-04-29T00:59:58.410Z,98262.00
2023-04-29T01:02:26.377Z,98265.00
2023-04-29T01:04:53.150Z,98262.00
2023-04-29T01:07:37.653Z,98270.00
2023-04-29T01:10:12.729Z,98262.00
2023-04-29T01:12:46.755Z,98271.00
2023-04-29T01:15:30.482Z,98268.00
2023-04-29T01:18:03.906Z,98278.00
2023-04-29T01:20:31.887Z,98287.00
2023-04-29T01:22:59.174Z,98290.00
2023-04-29T01:25:26.980Z,98278.00
2023-04-29T01:28:29.580Z,98285.00
2023-04-29T01:31:11.355Z,98287.00
2023-04-29T01:33:43.970Z,98294.00
2023-04-29T01:36:22.489Z,98289.00
2023-04-29T01:39:00.442Z,98294.00
2023-04-29T01:41:31.869Z,98293.00
2023-04-29T01:44:11.668Z,98283.00
2023-04-29T01:46:38.530Z,98285.00
2023-04-29T01:49:07.594Z,98289.00
2023-04-29T01:51:34.504Z,98290.00
2023-04-29T01:54:01.650Z,98289.00
2023-04-29T01:56:28.200Z,98289.00
2023-04-29T01:59:17.746Z,98278.00
2023-04-29T02:02:10.563Z,98274.00
2023-04-29T02:04:44.158Z,98291.00
2023-04-29T02:07:10.726Z,98291.00
2023-04-29T02:09:37.275Z,98292.00
2023-04-29T02:12:09.220Z,98273.00
2023-04-29T02:14:37.791Z,98279.00
2023-04-29T02:17:04.978Z,98283.00
2023-04-29T02:19:31.697Z,98279.00
2023-04-29T02:21:59.520Z,98285.00
2023-04-29T02:24:26.256Z,98295.00
2023-04-29T02:26:53.589Z,98291.00
2023-04-29T02:29:20.101Z,98296.00
2023-04-29T02:31:47.673Z,98289.00
2023-04-29T02:34:14.263Z,98289.00
2023-04-29T02:36:40.697Z,98294.00
2023-04-29T02:39:07.167Z,98303.00
2023-04-29T02:41:34.401Z,98307.00
2023-04-29T02:44:00.919Z,98302.00
2023-04-29T02:46:27.411Z,98304.00
2023-04-29T02:48:53.881Z,98293.00
2023-04-29T02:51:20.340Z,98298.00
2023-04-29T02:53:47.417Z,98299.00
2023-04-29T02:56:13.953Z,98306.00
2023-04-29T02:58:42.063Z,98299.00
2023-04-29T03:01:08.593Z,98294.00
2023-04-29T03:03:35.429Z,98301.00
2023-04-29T03:06:03.368Z,98300.00
2023-04-29T03:08:29.818Z,98297.00
2023-04-29T03:10:56.385Z,98294.00
2023-04-29T03:13:23.462Z,98299.00
2023-04-29T03:15:50.112Z,98298.00
2023-04-29T03:18:16.796Z,98305.00
2023-04-29T03:20:43.284Z,98300.00
2023-04-29T03:23:09.772Z,98303.00
2023-04-29T03:25:36.978Z,98308.00
2023-04-29T03:28:04.213Z,98311.00
2023-04-29T03:30:31.477Z,98309.00
2023-04-29T03:32:58.432Z,98310.00
2023-04-29T03:35:26.257Z,98307.00
2023-04-29T03:38:10.928Z,98301.00
2023-04-29T03:40:38.447Z,98311.00
2023-04-29T03:43:04.968Z,98314.00
2023-04-29T03:45:31.559Z,98310.00
2023-04-29T03:47:58.087Z,98321.00
2023-04-29T03:50:26.035Z,98316.00
2023-04-29T03:52:53.161Z,98321.00
2023-04-29T03:55:20.644Z,98314.00
2023-04-29T03:57:47.985Z,98314.00
2023-04-29T04:00:17.247Z,98321.00
2023-04-29T04:02:46.956Z,98326.00
2023-04-29T04:05:14.494Z,98327.00
2023-04-29T04:07:44.832Z,98323.00
2023-04-29T04:10:30.057Z,98326.00
2023-04-29T04:12:58.015Z,98326.00
2023-04-29T04:15:24.570Z,98331.00
2023-04-29T04:17:51.084Z,98332.00
2023-04-29T04:20:18.040Z,98335.00
2023-04-29T04:22:44.793Z,98338.00
2023-04-29T04:25:20.651Z,98335.00
2023-04-29T04:27:47.989Z,98340.00
2023-04-29T04:30:24.412Z,98348.00
2023-04-29T04:32:51.247Z,98343.00
2023-04-29T04:35:17.956Z,98343.00
2023-04-29T04:37:44.651Z,98355.00
2023-04-29T04:40:12.010Z,98359.00
2023-04-29T04:42:55.620Z,98370.00
2023-04-29T04:45:22.990Z,98363.00
2023-04-29T04:47:51.117Z,98368.00
2023-04-29T04:50:21.957Z,98369.00
2023-04-29T04:52:49.899Z,98381.00
2023-04-29T04:55:41.258Z,98378.00
2023-04-29T04:58:07.921Z,98379.00
2023-04-29T05:00:35.664Z,98384.00
2023-04-29T05:03:02.318Z,98386.00
2023-04-29T05:05:28.889Z,98387.00
2023-04-29T05:07:55.412Z,98386.00
2023-04-29T05:10:29.630Z,98389.00
2023-04-29T05:12:59.852Z,98386.00
2023-04-29T05:15:27.408Z,98393.00
2023-04-29T05:17:56.677Z,98389.00
2023-04-29T05:20:24.187Z,98395.00
2023-04-29T05:22:50.739Z,98404.00
2023-04-29T05:25:17.402Z,98397.00
2023-04-29T05:27:44.720Z,98408.00
2023-04-29T05:30:15.972Z,98405.00
2023-04-29T05:32:42.673Z,98408.00
2023-04-29T05:35:13.217Z,98405.00
2023-04-29T05:37:39.855Z,98407.00
2023-04-29T05:40:25.783Z,98405.00
2023-04-29T05:42:58.263Z,98405.00
2023-04-29T05:45:24.766Z,98406.00
2023-04-29T05:47:51.404Z,98405.00
2023-04-29T05:50:18.193Z,98412.00
2023-04-29T05:52:44.970Z,98421.00
2023-04-29T05:55:11.648Z,98415.00
2023-04-29T05:57:38.518Z,98425.00
2023-04-29T06:00:06.876Z,98422.00
2023-04-29T06:02:54.712Z,98426.00
2023-04-29T06:05:24.991Z,98426.00
2023-04-29T06:08:10.775Z,98415.00
2023-04-29T06:10:52.915Z,98425.00
2023-04-29T06:13:19.969Z,98429.00
2023-04-29T06:15:46.754Z,98436.00
2023-04-29T06:18:14.662Z,98437.00
2023-04-29T06:20:42.568Z,98438.00
2023-04-29T06:23:09.171Z,98443.00
2023-04-29T06:25:36.021Z,98435.00
2023-04-29T06:28:05.307Z,98438.00
2023-04-29T06:30:32.029Z,98447.00
2023-04-29T06:32:58.620Z,98443.00
2023-04-29T06:35:25.763Z,98444.00
2023-04-29T06:38:10.889Z,98450.00
2023-04-29T06:40:50.898Z,98447.00
2023-04-29T06:43:43.268Z,98450.00
2023-04-29T06:46:32.748Z,98455.00
2023-04-29T06:49:07.092Z,98464.00
2023-04-29T06:51:34.152Z,98457.00
2023-04-29T06:54:01.214Z,98456.00
2023-04-29T06:56:27.834Z,98464.00
2023-04-29T06:58:54.377Z,98468.00
2023-04-29T07:01:21.366Z,98475.00
2023-04-29T07:03:48.062Z,98474.00
2023-04-29T07:06:14.709Z,98479.00
2023-04-29T07:08:41.152Z,98478.00
2023-04-29T07:11:07.786Z,98490.00
2023-04-29T07:13:34.223Z,98497.00
2023-04-29T07:16:00.780Z,98488.00
2023-04-29T07:18:27.616Z,98493.00
2023-04-29T07:20:56.002Z,98499.00
2023-04-29T07:23:22.678Z,98509.00
2023-04-29T07:25:49.169Z,98508.00
2023-04-29T07:28:15.664Z,98518.00
2023-04-29T07:30:42.255Z,98516.00
2023-04-29T07:33:09.440Z,98521.00
2023-04-29T07:35:35.953Z,98520.00
2023-04-29T07:38:02.496Z,98522.00
2023-04-29T07:40:30.616Z,98530.00
2023-04-29T07:43:05.500Z,98537.00
2023-04-29T07:45:32.419Z,98541.00
2023-04-29T07:47:59.961Z,98550.00
2023-04-29T07:50:26.684Z,98548.00
2023-04-29T07:52:55.128Z,98554.00
2023-04-29T07:55:21.634Z,98546.00
2023-04-29T07:57:48.118Z,98552.00
2023-04-29T08:00:14.865Z,98556.00
2023-04-29T08:02:42.491Z,98555.00
2023-04-29T08:05:10.668Z,98564.00
2023-04-29T08:07:41.381Z,98563.00
2023-04-29T08:10:11.248Z,98571.00
2023-04-29T08:12:37.715Z,98570.00
2023-04-29T08:15:05.141Z,98569.00
2023-04-29T08:17:31.730Z,98567.00
2023-04-29T08:19:59.268Z,98568.00
2023-04-29T08:22:28.864Z,98570.00
2023-04-29T08:24:55.879Z,98573.00
2023-04-29T08:27:22.426Z,98575.00
2023-04-29T08:29:49.023Z,98578.00
2023-04-29T08:32:15.724Z,98581.00
2023-04-29T08:34:42.265Z,98593.00
2023-04-29T08:37:08.757Z,98589.00
2023-04-29T08:39:35.232Z,98586.00
2023-04-29T08:42:08.872Z,98592.00
2023-04-29T08:44:36.590Z,98594.00
2023-04-29T08:47:03.704Z,98600.00
2023-04-29T08:49:30.331Z,98600.00
2023-04-29T08:51:56.809Z,98606.00
2023-04-29T08:54:23.379Z,98605.00
2023-04-29T08:56:51.684Z,98606.00
2023-04-29T08:59:19.977Z,98610.00
2023-04-29T09:01:51.991Z,98618.00
2023-04-29T09:04:41.859Z,98611.00
2023-04-29T09:07:10.110Z,98619.00
2023-04-29T09:09:37.571Z,98619.00
2023-04-29T09:12:04.479Z,98622.00
2023-04-29T09:14:34.247Z,98617.00
2023-04-29T09:17:00.755Z,98632.00
2023-04-29T09:19:35.380Z,98632.00
2023-04-29T09:22:03.548Z,98632.00
2023-04-29T09:24:31.621Z,98635.00
2023-04-29T09:26:58.987Z,98633.00
2023-04-29T09:29:26.207Z,98633.00
2023-04-29T09:31:57.675Z,98647.00
2023-04-29T09:34:37.728Z,98646.00
2023-04-29T09:37:04.721Z,98648.00
2023-04-29T09:39:39.728Z,98648.00
2023-04-29T09:42:06.758Z,98647.00
2023-04-29T09:44:36.344Z,98653.00
2023-04-29T09:47:08.256Z,98654.00
2023-04-29T09:49:38.454Z,98658.00
2023-04-29T09:52:10.678Z,98657.00
2023-04-29T09:54:38.881Z,98653.00
2023-04-29T09:57:06.895Z,98661.00
2023-04-29T09:59:36.167Z,98660.00
2023-04-29T10:02:09.223Z,98662.00
2023-04-29T10:04:40.308Z,98668.00
2023-04-29T10:07:08.512Z,98660.00
2023-04-29T10:09:38.036Z,98665.00
2023-04-29T10:12:07.413Z,98663.00
2023-04-29T10:14:39.281Z,98657.00
2023-04-29T10:17:16.212Z,98664.00
2023-04-29T10:19:59.310Z,98659.00
2023-04-29T10:22:49.113Z,98662.00
2023-04-29T10:25:20.898Z,98661.00
2023-04-29T10:27:49.030Z,98668.00
2023-04-29T10:30:17.634Z,98654.00
2023-04-29T10:32:50.916Z,98657.00
2023-04-29T10:35:22.213Z,98657.00
2023-04-29T10:37:49.496Z,98656.00
2023-04-29T10:40:18.484Z,98651.00
2023-04-29T10:43:03.226Z,98660.00
2023-04-29T10:45:37.543Z,98657.00
2023-04-29T10:48:06.047Z,98653.00
2023-04-29T10:50:34.754Z,98663.00
2023-04-29T10:53:05.413Z,98664.00
2023-04-29T10:55:36.639Z,98658.00
2023-04-29T10:58:04.408Z,98656.00
2023-04-29T11:00:37.863Z,98660.00
2023-04-29T11:03:06.322Z,98657.00
2023-04-29T11:05:37.499Z,98656.00
2023-04-29T11:08:24.362Z,98656.00
2023-04-29T11:11:00.518Z,98654.00
2023-04-29T11:13:28.946Z,98650.00
2023-04-29T11:16:04.977Z,98654.00
2023-04-29T11:18:32.191Z,98652.00
2023-04-29T11:21:04.719Z,98652.00
2023-04-29T11:23:33.796Z,98654.00
2023-04-29T11:26:01.328Z,98659.00
2023-04-29T11:28:28.403Z,98656.00
2023-04-29T11:30:56.918Z,98659.00
2023-04-29T11:33:24.385Z,98660.00
2023-04-29T11:35:51.777Z,98660.00
2023-04-29T11:38:18.274Z,98660.00
2023-04-29T11:40:51.290Z,98656.00
2023-04-29T11:43:18.761Z,98657.00
2023-04-29T11:45:46.681Z,98661.00
2023-04-29T11:48:19.759Z,98666.00
2023-04-29T11:50:52.007Z,98657.00
2023-04-29T11:53:22.482Z,98667.00
2023-04-29T11:55:49.043Z,98669.00
2023-04-29T11:58:18.411Z,98672.00
2023-04-29T12:00:47.388Z,98674.00
2023-04-29T12:03:16.036Z,98681.00
2023-04-29T12:05:54.524Z,98675.00
2023-04-29T12:08:24.516Z,98684.00
2023-04-29T12:10:52.338Z,98676.00
2023-04-29T12:13:20.416Z,98671.00
2023-04-29T12:15:48.761Z,98677.00
2023-04-29T12:18:16.375Z,98677.00
2023-04-29T12:20:42.909Z,98674.00
2023-04-29T12:23:16.237Z,98679.00
2023-04-29T12:25:47.377Z,98677.00
2023-04-29T12:28:14.179Z,98678.00
2023-04-29T12:30:41.589Z,98681.00
2023-04-29T12:33:09.205Z,98691.00
2023-04-29T12:35:37.166Z,98681.00
2023-04-29T12:38:03.796Z,98686.00
2023-04-29T12:40:31.641Z,98692.00
2023-04-29T12:42:58.082Z,98694.00
2023-04-29T12:45:30.116Z,98694.00
2023-04-29T12:47:57.734Z,98702.00
2023-04-29T12:50:37.991Z,98700.00
2023-04-29T12:53:06.509Z,98695.00
2023-04-29T12:55:34.735Z,98706.00
2023-04-29T12:58:05.556Z,98702.00
2023-04-29T13:00:32.506Z,98703.00
2023-04-29T13:02:59.346Z,98704.00
2023-04-29T13:05:26.016Z,98715.00
2023-04-29T13:07:52.673Z,98709.00
2023-04-29T13:10:19.119Z,98713.00
2023-04-29T13:12:45.956Z,98722.00
2023-04-29T13:15:12.411Z,98715.00
2023-04-29T13:17:39.033Z,98712.00
2023-04-29T13:20:06.574Z,98718.00
2023-04-29T13:22:33.344Z,98715.00
2023-04-29T13:25:00.040Z,98721.00
2023-04-29T13:27:26.747Z,98716.00
2023-04-29T13:29:53.614Z,98712.00
2023-04-29T13:32:24.556Z,98721.00
2023-04-29T13:34:51.587Z,98719.00
2023-04-29T13:37:18.424Z,98720.00
2023-04-29T13:39:47.385Z,98714.00
2023-04-29T13:42:15.641Z,98715.00
2023-04-29T13:44:51.817Z,98722.00
2023-04-29T13:47:24.989Z,98715.00
2023-04-29T13:55:18.419Z,98720.00
2023-04-29T14:00:25.201Z,98726.00
2023-04-29T14:05:25.716Z,98722.00
2023-04-29T14:07:52.428Z,98727.00
2023-04-29T14:10:18.977Z,98725.00
2023-04-29T14:12:45.627Z,98727.00
2023-04-29T14:15:12.166Z,98729.00
2023-04-29T14:17:38.680Z,98738.00
2023-04-29T14:20:05.954Z,98737.00
2023-04-29T14:22:32.476Z,98749.00
2023-04-29T14:24:58.991Z,98740.00
2023-04-29T14:27:25.554Z,98750.00
2023-04-29T14:29:52.032Z,98744.00
2023-04-29T14:32:18.560Z,98756.00
2023-04-29T14:34:45.169Z,98756.00
2023-04-29T14:37:11.834Z,98755.00
2023-04-29T14:39:38.319Z,98764.00
2023-04-29T14:42:05.349Z,98763.00
2023-04-29T14:44:31.847Z,98762.00
2023-04-29T14:46:58.384Z,98770.00
2023-04-29T14:49:24.983Z,98759.00
2023-04-29T14:51:51.672Z,98763.00
2023-04-29T14:54:18.105Z,98755.00
2023-04-29T14:56:44.577Z,98749.00
2023-04-29T14:59:11.085Z,98755.00
2023-04-29T15:01:39.706Z,98753.00
2023-04-29T15:04:06.488Z,98754.00
2023-04-29T15:06:33.158Z,98762.00
2023-04-29T15:09:00.074Z,98768.00
2023-04-29T15:11:26.946Z,98767.00
2023-04-29T15:13:53.527Z,98763.00
2023-04-29T15:16:20.142Z,98762.00
2023-04-29T15:18:47.103Z,98753.00
2023-04-29T15:21:13.608Z,98759.00
2023-04-29T15:23:40.069Z,98760.00
2023-04-29T15:26:07.717Z,98759.00
2023-04-29T15:28:34.144Z,98759.00
2023-04-29T15:31:03.643Z,98762.00
2023-04-29T15:33:30.281Z,98764.00
2023-04-29T15:35:57.808Z,98764.00
2023-04-29T15:38:24.324Z,98766.00
2023-04-29T15:40:50.783Z,98768.00
2023-04-29T15:43:17.246Z,98758.00
2023-04-29T15:45:44.423Z,98768.00
2023-04-29T15:48:10.962Z,98764.00
2023-04-29T15:50:37.445Z,98768.00
2023-04-29T15:53:03.898Z,98779.00
2023-04-29T15:55:30.394Z,98772.00
2023-04-29T15:57:56.854Z,98773.00
2023-04-29T16:00:23.300Z,98772.00
2023-04-29T16:02:49.807Z,98780.00
2023-04-29T16:05:16.360Z,98775.00
2023-04-29T16:07:42.934Z,98778.00
2023-04-29T16:10:09.899Z,98780.00
2023-04-29T16:12:36.437Z,98780.00
2023-04-29T16:15:03.331Z,98770.00
2023-04-29T16:17:31.821Z,98776.00
2023-04-29T16:19:58.391Z,98763.00
2023-04-29T16:22:24.955Z,98772.00
2023-04-29T16:24:51.457Z,98771.00
2023-04-29T16:27:18.772Z,98774.00
2023-04-29T16:29:45.555Z,98773.00
2023-04-29T16:32:12.060Z,98777.00
2023-04-29T16:34:38.642Z,98779.00
2023-04-29T16:37:05.179Z,98783.00
2023-04-29T16:39:31.674Z,98781.00
2023-04-29T16:41:59.464Z,98776.00
2023-04-29T16:44:26.075Z,98772.00
2023-04-29T16:46:53.366Z,98773.00
2023-04-29T16:49:25.377Z,98763.00
2023-04-29T16:51:52.158Z,98759.00
2023-04-29T16:54:18.677Z,98764.00
2023-04-29T16:56:45.260Z,98769.00
2023-04-29T16:59:12.421Z,98769.00
2023-04-29T17:01:39.703Z,98769.00
2023-04-29T17:04:06.921Z,98779.00
2023-04-29T17:06:34.651Z,98785.00
2023-04-29T17:09:02.354Z,98784.00
2023-04-29T17:11:28.945Z,98776.00
2023-04-29T17:13:55.455Z,98784.00
2023-04-29T17:16:22.157Z,98785.00
2023-04-29T17:18:48.727Z,98787.00
2023-04-29T17:21:15.456Z,98781.00
2023-04-29T17:23:41.999Z,98787.00
2023-04-29T17:26:08.560Z,98787.00
2023-04-29T17:28:35.058Z,98794.00
2023-04-29T17:31:02.355Z,98797.00
2023-04-29T17:33:34.162Z,98783.00
2023-04-29T17:36:04.686Z,98796.00
2023-04-29T17:38:34.592Z,98788.00
2023-04-29T17:41:03.908Z,98796.00
2023-04-29T17:43:33.130Z,98798.00
2023-04-29T17:45:59.721Z,98793.00
2023-04-29T17:48:26.325Z,98796.00
2023-04-29T17:50:53.900Z,98797.00
2023-04-29T17:53:20.361Z,98800.00
2023-04-29T17:55:47.070Z,98797.00
2023-04-29T17:58:13.549Z,98802.00
2023-04-29T18:00:41.709Z,98805.00
2023-04-29T18:03:08.529Z,98814.00
2023-04-29T18:05:35.107Z,98813.00
2023-04-29T18:08:01.577Z,98810.00
2023-04-29T18:10:28.106Z,98816.00
2023-04-29T18:12:54.577Z,98827.00
2023-04-29T18:15:22.993Z,98811.00
2023-04-29T18:17:49.874Z,98821.00
2023-04-29T18:20:16.397Z,98821.00
2023-04-29T18:22:42.926Z,98814.00
2023-04-29T18:25:11.052Z,98825.00
2023-04-29T18:27:37.616Z,98818.00
2023-04-29T18:30:04.513Z,98815.00
2023-04-29T18:32:31.075Z,98826.00
2023-04-29T18:34:59.513Z,98822.00
2023-04-29T18:37:26.080Z,98829.00
2023-04-29T18:39:52.772Z,98828.00
2023-04-29T18:42:19.532Z,98835.00
2023-04-29T18:44:48.122Z,98826.00
2023-04-29T18:47:15.034Z,98829.00
2023-04-29T18:49:41.480Z,98840.00
2023-04-29T18:52:08.584Z,98835.00
2023-04-29T18:54:35.178Z,98831.00
2023-04-29T18:57:02.528Z,98843.00
2023-04-29T18:59:29.678Z,98840.00
2023-04-29T19:01:56.225Z,98844.00
2023-04-29T19:04:22.861Z,98843.00
2023-04-29T19:06:49.431Z,98843.00
2023-04-29T19:09:15.979Z,98845.00
2023-04-29T19:11:42.530Z,98847.00
2023-04-29T19:14:09.090Z,98850.00
2023-04-29T19:16:37.281Z,98862.00
2023-04-29T19:19:04.407Z,98862.00
2023-04-29T19:21:33.007Z,98867.00
2023-04-29T19:23:59.854Z,98873.00
2023-04-29T19:26:26.379Z,98883.00
2023-04-29T19:28:52.856Z,98875.00
2023-04-29T19:31:19.420Z,98872.00
2023-04-29T19:33:46.032Z,98881.00
2023-04-29T19:36:14.177Z,98886.00
2023-04-29T19:38:40.834Z,98887.00
2023-04-29T19:41:07.400Z,98885.00
2023-04-29T19:43:33.853Z,98884.00
2023-04-29T19:46:00.385Z,98882.00
2023-04-29T19:48:26.878Z,98879.00
2023-04-29T19:50:53.352Z,98886.00
2023-04-29T19:53:19.887Z,98882.00
2023-04-29T19:55:46.524Z,98881.00
2023-04-29T19:58:12.982Z,98882.00
2023-04-29T20:00:39.775Z,98882.00
2023-04-29T20:03:06.402Z,98883.00
2023-04-29T20:05:33.758Z,98874.00
2023-04-29T20:08:00.261Z,98880.00
2023-04-29T20:10:29.624Z,98891.00
2023-04-29T20:12:56.644Z,98883.00
2023-04-29T20:15:23.249Z,98894.00
2023-04-29T20:17:50.031Z,98890.00
2023-04-29T20:20:16.864Z,98888.00
2023-04-29T20:22:43.589Z,98893.00
2023-04-29T20:25:10.374Z,98888.00
2023-04-29T20:27:36.891Z,98881.00
2023-04-29T20:30:03.695Z,98896.00
2023-04-29T20:32:30.722Z,98892.00
2023-04-29T20:34:57.291Z,98900.00
2023-04-29T20:37:23.804Z,98906.00
2023-04-29T20:39:50.497Z,98901.00
2023-04-29T20:42:17.162Z,98905.00
2023-04-29T20:44:44.183Z,98894.00
2023-04-29T20:47:10.795Z,98901.00
2023-04-29T20:49:37.581Z,98905.00
2023-04-29T20:52:06.372Z,98907.00
2023-04-29T20:54:33.945Z,98899.00
2023-04-29T20:57:01.568Z,98905.00
2023-04-29T20:59:28.148Z,98902.00
2023-04-29T21:01:54.805Z,98904.00
2023-04-29T21:04:21.800Z,98901.00
2023-04-29T21:06:50.607Z,98905.00
2023-04-29T21:09:19.006Z,98910.00
2023-04-29T21:11:45.757Z,98915.00
2023-04-29T21:14:13.155Z,98917.00
2023-04-29T21:16:40.945Z,98913.00
2023-04-29T21:19:07.405Z,98919.00
2023-04-29T21:21:34.156Z,98915.00
2023-04-29T21:24:01.216Z,98915.00
2023-04-29T21:26:31.090Z,98912.00
2023-04-29T21:28:57.568Z,98917.00
2023-04-29T21:31:24.149Z,98919.00
2023-04-29T21:33:50.744Z,98929.00
2023-04-29T21:36:17.206Z,98931.00
2023-04-29T21:38:43.806Z,98928.00
2023-04-29T21:41:29.892Z,98927.00
2023-04-29T21:43:59.213Z,98929.00
2023-04-29T21:46:30.452Z,98923.00
2023-04-29T21:49:00.962Z,98929.00
2023-04-29T21:51:28.571Z,98925.00
2023-04-29T21:53:55.148Z,98932.00
2023-04-29T21:56:22.668Z,98928.00
2023-04-29T21:58:49.307Z,98925.00
2023-04-29T22:01:39.116Z,98922.00
2023-04-29T22:04:06.089Z,98926.00
2023-04-29T22:06:34.327Z,98927.00
2023-04-29T22:09:01.281Z,98921.00
2023-04-29T22:11:27.764Z,98918.00
2023-04-29T22:13:54.300Z,98923.00
2023-04-29T22:16:20.870Z,98929.00
2023-04-29T22:18:48.194Z,98921.00
2023-04-29T22:21:15.337Z,98929.00
2023-04-29T22:23:42.425Z,98926.00
2023-04-29T22:26:08.910Z,98924.00
2023-04-29T22:28:35.362Z,98923.00
2023-04-29T22:31:01.861Z,98913.00
2023-04-29T22:33:29.831Z,98924.00
2023-04-29T22:35:56.269Z,98930.00
2023-04-29T22:38:22.816Z,98921.00
2023-04-29T22:40:52.366Z,98907.00
2023-04-29T22:43:18.963Z,98911.00
2023-04-29T22:45:56.028Z,98914.00
2023-04-29T22:48:24.590Z,98915.00
2023-04-29T22:50:54.463Z,98914.00
2023-04-29T22:53:21.415Z,98910.00
2023-04-29T22:55:59.030Z,98909.00
2023-04-29T22:58:26.098Z,98917.00
2023-04-29T23:00:57.548Z,98927.00
2023-04-29T23:03:24.482Z,98931.00
2023-04-29T23:05:51.313Z,98931.00
2023-04-29T23:08:18.108Z,98928.00
2023-04-29T23:10:51.615Z,98934.00
2023-04-29T23:13:18.344Z,98930.00
2023-04-29T23:15:45.519Z,98927.00
2023-04-29T23:18:12.403Z,98928.00
2023-04-29T23:20:39.283Z,98926.00
2023-04-29T23:23:06.140Z,98926.00
2023-04-29T23:25:32.689Z,98932.00
2023-04-29T23:27:59.122Z,98936.00
2023-04-29T23:30:25.962Z,98939.00
2023-04-29T23:32:52.565Z,98940.00
2023-04-29T23:35:19.129Z,98943.00
2023-04-29T23:37:45.627Z,98936.00
2023-04-29T23:40:12.516Z,98933.00
2023-04-29T23:42:39.078Z,98940.00
2023-04-29T23:45:06.378Z,98941.00
2023-04-29T23:47:32.895Z,98938.00
2023-04-29T23:49:59.476Z,98940.00
2023-04-29T23:52:26.050Z,98944.00
2023-04-29T23:54:52.536Z,98939.00
2023-04-29T23:57:19.018Z,98945.00
2023-04-29T23:59:45.572Z,98939.00
